Gadsden, Arizona
Current Conditions -  °F | °C
As of 4:57 PM on Thursday 18 Dec 2014 (Local Time) from KNYL Reporting Station
Scattered Clouds Scattered Clouds  
Wind Chill: 65°   Ceiling: Unl
Heat Index: 65°   Visibility: 10mi
Dew Point: 42°   Wind: 7mph
Humidity: 43%   Direction: 360°N
Pressure: 30.11"   Gusts: NA
Location:  32.55°N, 114.79°W
Report Text: KNYL 182357Z 36006KT 10SM FEW040 SCT200 18/06 A3011 RMK AO2 SLPNO T01830056 53001
Loading
Personal Weather Stations






























Interactive Weather Map New forecast layout! Learn more

10-Day Weather Forecast

Advertisements
Track Severe Weather on mobile